createdAt,value
2018-10-17T00:00:14.571Z,12.23
2018-10-17T00:02:44.135Z,12.20
2018-10-17T00:05:13.678Z,12.19
2018-10-17T00:07:43.190Z,12.17
2018-10-17T00:10:12.843Z,12.18
2018-10-17T00:12:42.526Z,12.17
2018-10-17T00:15:12.071Z,12.15
2018-10-17T00:17:41.602Z,12.15
2018-10-17T00:20:11.696Z,12.12
2018-10-17T00:22:41.208Z,12.13
2018-10-17T00:25:10.816Z,12.13
2018-10-17T00:27:40.326Z,12.11
2018-10-17T00:30:11.754Z,12.11
2018-10-17T00:32:45.047Z,12.12
2018-10-17T00:35:14.730Z,12.12
2018-10-17T00:37:44.155Z,12.10
2018-10-17T00:40:13.712Z,12.06
2018-10-17T00:42:43.338Z,12.04
2018-10-17T00:45:12.894Z,12.04
2018-10-17T00:47:42.433Z,12.03
2018-10-17T00:50:11.963Z,12.00
2018-10-17T00:52:41.518Z,11.97
2018-10-17T00:55:11.051Z,11.96
2018-10-17T00:57:40.579Z,11.93
2018-10-17T01:00:10.270Z,11.90
2018-10-17T01:02:39.792Z,11.89
2018-10-17T01:05:09.421Z,11.86
2018-10-17T01:07:38.906Z,11.82
2018-10-17T01:10:08.471Z,11.81
2018-10-17T01:12:37.968Z,11.76
2018-10-17T01:15:07.607Z,11.73
2018-10-17T01:17:37.150Z,11.70
2018-10-17T01:20:07.790Z,11.67
2018-10-17T01:22:37.503Z,11.64
2018-10-17T01:25:07.281Z,11.58
2018-10-17T01:27:36.966Z,11.55
2018-10-17T01:30:07.559Z,11.53
2018-10-17T01:32:37.115Z,11.50
2018-10-17T01:35:07.168Z,11.48
2018-10-17T01:37:36.673Z,11.46
2018-10-17T01:40:06.843Z,11.45
2018-10-17T01:42:36.481Z,11.45
2018-10-17T01:45:06.955Z,11.43
2018-10-17T01:47:36.555Z,11.42
2018-10-17T01:50:06.774Z,11.41
2018-10-17T01:52:36.314Z,11.40
2018-10-17T01:55:06.965Z,11.37
2018-10-17T01:57:36.638Z,11.37
2018-10-17T02:00:06.526Z,11.36
2018-10-17T02:02:36.047Z,11.34
2018-10-17T02:05:05.830Z,11.33
2018-10-17T02:07:35.324Z,11.31
2018-10-17T02:10:04.892Z,11.30
2018-10-17T02:12:34.446Z,11.28
2018-10-17T02:15:04.004Z,11.28
2018-10-17T02:17:33.599Z,11.27
2018-10-17T02:20:03.107Z,11.25
2018-10-17T02:22:32.707Z,11.25
2018-10-17T02:25:02.290Z,11.25
2018-10-17T02:27:31.819Z,11.23
2018-10-17T02:30:01.434Z,11.22
2018-10-17T02:32:30.862Z,11.22
2018-10-17T02:35:05.439Z,11.20
2018-10-17T02:37:34.889Z,11.20
2018-10-17T02:40:04.482Z,11.17
2018-10-17T02:42:34.010Z,11.18
2018-10-17T02:45:03.572Z,11.16
2018-10-17T02:47:33.125Z,11.16
2018-10-17T02:50:06.758Z,11.17
2018-10-17T02:52:36.875Z,11.20
2018-10-17T02:55:06.661Z,11.20
2018-10-17T02:57:36.575Z,11.19
2018-10-17T03:00:07.071Z,11.20
2018-10-17T03:02:36.591Z,11.20
2018-10-17T03:05:06.434Z,11.19
2018-10-17T03:07:35.983Z,11.17
2018-10-17T03:10:05.558Z,11.15
2018-10-17T03:12:35.098Z,11.16
2018-10-17T03:15:04.756Z,11.17
2018-10-17T03:17:34.299Z,11.18
2018-10-17T03:20:04.043Z,11.19
2018-10-17T03:22:33.599Z,11.22
2018-10-17T03:25:03.188Z,11.23
2018-10-17T03:27:32.747Z,11.23
2018-10-17T03:30:02.297Z,11.23
2018-10-17T03:32:31.859Z,11.23
2018-10-17T03:35:01.449Z,11.23
2018-10-17T03:37:31.015Z,11.23
2018-10-17T03:40:00.553Z,11.23
2018-10-17T03:42:30.086Z,11.21
2018-10-17T03:44:59.640Z,11.21
2018-10-17T03:47:29.130Z,11.20
2018-10-17T03:49:58.696Z,11.20
2018-10-17T03:52:28.232Z,11.19
2018-10-17T03:54:57.798Z,11.20
2018-10-17T03:57:27.344Z,11.17
2018-10-17T03:59:56.843Z,11.16
2018-10-17T04:02:26.438Z,11.13
2018-10-17T04:04:56.022Z,11.12
2018-10-17T04:07:25.544Z,11.10
2018-10-17T04:09:55.086Z,11.09
2018-10-17T04:12:25.051Z,11.09
2018-10-17T04:14:54.589Z,11.08
2018-10-17T04:17:24.098Z,11.08
2018-10-17T04:19:53.684Z,11.08
2018-10-17T04:22:23.235Z,11.09
2018-10-17T04:24:52.805Z,11.10
2018-10-17T04:27:22.367Z,11.11
2018-10-17T04:29:51.917Z,11.12
2018-10-17T04:32:21.453Z,11.12
2018-10-17T04:34:51.005Z,11.11
2018-10-17T04:37:20.503Z,11.12
2018-10-17T04:39:50.070Z,11.13
2018-10-17T04:42:19.613Z,11.13
2018-10-17T04:44:49.169Z,11.15
2018-10-17T04:47:18.743Z,11.16
2018-10-17T04:49:48.318Z,11.17
2018-10-17T04:52:17.823Z,11.19
2018-10-17T04:54:47.384Z,11.20
2018-10-17T04:57:16.983Z,11.23
2018-10-17T04:59:46.587Z,11.25
2018-10-17T05:02:16.083Z,11.28
2018-10-17T05:04:45.728Z,11.32
2018-10-17T05:07:15.224Z,11.35
2018-10-17T05:09:44.795Z,11.40
2018-10-17T05:12:14.450Z,11.44
2018-10-17T05:14:44.075Z,11.49
2018-10-17T05:17:13.674Z,11.55
2018-10-17T05:19:43.204Z,11.62
2018-10-17T05:22:12.797Z,11.67
2018-10-17T05:24:42.376Z,11.74
2018-10-17T05:27:11.980Z,11.81
2018-10-17T05:29:42.686Z,11.90
2018-10-17T05:32:12.211Z,11.98
2018-10-17T05:34:41.899Z,12.08
2018-10-17T05:37:11.519Z,12.20
2018-10-17T05:39:41.026Z,12.33
2018-10-17T05:42:10.545Z,12.44
2018-10-17T05:44:40.151Z,12.62
2018-10-17T05:47:09.851Z,12.76
2018-10-17T05:49:39.278Z,12.91
2018-10-17T05:52:08.849Z,13.04
2018-10-17T05:54:38.352Z,13.18
2018-10-17T05:57:07.993Z,13.28
2018-10-17T05:59:37.518Z,13.36
2018-10-17T06:02:15.010Z,13.43
2018-10-17T06:04:44.531Z,13.53
2018-10-17T06:07:14.219Z,13.64
2018-10-17T06:09:43.666Z,13.74
2018-10-17T06:12:13.285Z,13.88
2018-10-17T06:14:42.831Z,13.94
2018-10-17T06:17:12.363Z,14.01
2018-10-17T06:19:41.907Z,14.11
2018-10-17T06:22:11.438Z,14.19
2018-10-17T06:24:41.068Z,14.29
2018-10-17T06:27:10.634Z,14.41
2018-10-17T06:29:40.274Z,14.47
2018-10-17T06:32:09.802Z,14.57
2018-10-17T06:34:39.418Z,14.67
2018-10-17T06:37:09.308Z,14.78
2018-10-17T06:39:38.885Z,14.89
2018-10-17T06:42:08.408Z,14.58
2018-10-17T06:44:37.983Z,15.04
2018-10-17T06:47:07.731Z,15.13
2018-10-17T06:49:37.299Z,15.20
2018-10-17T06:52:06.865Z,15.34
2018-10-17T06:54:36.572Z,15.46
2018-10-17T06:57:06.259Z,15.58
2018-10-17T06:59:35.827Z,15.68
2018-10-17T07:02:05.506Z,15.75
2018-10-17T07:04:35.011Z,15.79
2018-10-17T07:07:04.705Z,15.88
2018-10-17T07:09:34.171Z,15.91
2018-10-17T07:12:03.771Z,16.02
2018-10-17T07:14:33.351Z,16.14
2018-10-17T07:17:02.946Z,16.26
2018-10-17T07:19:32.471Z,16.31
2018-10-17T07:22:02.957Z,16.41
2018-10-17T07:24:32.596Z,16.55
2018-10-17T07:27:02.182Z,16.63
2018-10-17T07:29:32.909Z,16.68
2018-10-17T07:32:02.350Z,16.76
2018-10-17T07:34:31.863Z,16.89
2018-10-17T07:37:01.412Z,17.01
2018-10-17T07:39:30.978Z,16.99
2018-10-17T07:42:00.515Z,17.16
2018-10-17T07:44:30.208Z,17.23
2018-10-17T07:46:59.802Z,17.35
2018-10-17T07:49:29.416Z,17.49
2018-10-17T07:51:58.964Z,17.63
2018-10-17T07:54:28.523Z,17.68
2018-10-17T07:56:58.063Z,17.80
2018-10-17T07:59:27.705Z,17.90
2018-10-17T08:01:57.197Z,18.02
2018-10-17T08:04:26.800Z,18.17
2018-10-17T08:06:56.434Z,18.31
2018-10-17T08:09:25.920Z,18.47
2018-10-17T08:14:18.249Z,18.73
2018-10-17T08:16:47.769Z,18.83
2018-10-17T08:19:17.326Z,18.96
2018-10-17T08:21:47.168Z,18.46
2018-10-17T08:24:16.853Z,19.18
2018-10-17T08:26:46.364Z,19.23
2018-10-17T08:29:16.025Z,19.30
2018-10-17T08:31:45.582Z,19.38
2018-10-17T08:34:15.111Z,19.46
2018-10-17T08:36:44.827Z,19.57
2018-10-17T08:39:14.266Z,19.67
2018-10-17T08:41:43.873Z,19.75
2018-10-17T08:44:13.438Z,19.83
2018-10-17T08:46:43.046Z,19.91
2018-10-17T08:49:12.571Z,20.01
2018-10-17T08:51:42.106Z,20.12
2018-10-17T08:54:11.598Z,20.21
2018-10-17T08:56:41.145Z,20.32
2018-10-17T08:59:10.704Z,20.42
2018-10-17T09:01:40.273Z,20.55
2018-10-17T09:04:09.850Z,20.71
2018-10-17T09:06:39.379Z,20.87
2018-10-17T09:09:11.722Z,21.03
2018-10-17T09:11:41.834Z,21.21
2018-10-17T09:14:11.885Z,21.43
2018-10-17T09:16:41.473Z,20.92
2018-10-17T09:19:11.312Z,21.81
2018-10-17T09:21:41.136Z,21.99
2018-10-17T09:24:10.497Z,22.08
2018-10-17T09:26:39.955Z,22.20
2018-10-17T09:29:09.510Z,22.34
2018-10-17T09:31:39.071Z,22.39
2018-10-17T09:34:08.695Z,22.53
2018-10-17T09:36:38.186Z,22.60
2018-10-17T09:39:09.787Z,22.70
2018-10-17T09:41:39.408Z,22.76
2018-10-17T09:44:09.057Z,22.87
2018-10-17T09:46:38.680Z,22.98
2018-10-17T09:49:08.216Z,23.01
2018-10-17T09:51:37.770Z,23.05
2018-10-17T09:54:07.460Z,23.12
2018-10-17T09:56:36.947Z,23.18
2018-10-17T09:59:06.810Z,23.20
2018-10-17T10:01:41.319Z,23.23
2018-10-17T10:04:11.310Z,23.30
2018-10-17T10:06:40.992Z,23.36
2018-10-17T10:09:11.278Z,23.41
2018-10-17T10:11:40.823Z,23.45
2018-10-17T10:14:10.483Z,23.42
2018-10-17T10:16:39.987Z,23.49
2018-10-17T10:19:09.698Z,23.45
2018-10-17T10:21:39.272Z,23.50
2018-10-17T10:24:08.871Z,23.55
2018-10-17T10:26:38.363Z,22.77
2018-10-17T10:29:07.941Z,23.61
2018-10-17T10:31:37.446Z,23.64
2018-10-17T10:34:07.069Z,23.67
2018-10-17T10:36:36.519Z,23.55
2018-10-17T10:39:09.074Z,23.50
2018-10-17T10:41:38.715Z,23.65
2018-10-17T10:44:08.320Z,23.76
2018-10-17T10:46:37.864Z,23.83
2018-10-17T10:49:07.461Z,23.86
2018-10-17T10:51:37.124Z,23.96
2018-10-17T10:54:06.676Z,23.35
2018-10-17T10:56:36.223Z,24.11
2018-10-17T10:59:05.791Z,24.19
2018-10-17T11:01:35.382Z,24.24
2018-10-17T11:04:05.227Z,24.20
2018-10-17T11:06:34.805Z,24.23
2018-10-17T11:09:05.419Z,24.27
2018-10-17T11:11:34.968Z,24.37
2018-10-17T11:14:04.650Z,24.38
2018-10-17T11:16:34.300Z,24.44
2018-10-17T11:19:03.811Z,24.43
2018-10-17T11:21:33.439Z,24.47
2018-10-17T11:24:03.172Z,24.49
2018-10-17T11:26:32.798Z,24.55
2018-10-17T11:29:02.348Z,24.57
2018-10-17T11:31:31.901Z,24.58
2018-10-17T11:34:01.475Z,24.55
2018-10-17T11:36:31.026Z,24.56
2018-10-17T11:39:00.626Z,24.58
2018-10-17T11:41:30.238Z,24.57
2018-10-17T11:43:59.733Z,24.53
2018-10-17T11:46:29.279Z,24.61
2018-10-17T11:48:58.887Z,24.64
2018-10-17T11:51:28.412Z,24.70
2018-10-17T11:53:57.911Z,24.76
2018-10-17T11:56:27.480Z,24.80
2018-10-17T11:58:57.236Z,24.82
2018-10-17T12:01:27.103Z,24.78
2018-10-17T12:03:56.766Z,24.76
2018-10-17T12:06:26.430Z,24.76
2018-10-17T12:08:55.935Z,24.63
2018-10-17T12:11:25.585Z,24.63
2018-10-17T12:13:55.157Z,24.58
2018-10-17T12:16:24.797Z,24.58
2018-10-17T12:18:54.412Z,24.57
2018-10-17T12:21:23.997Z,23.77
2018-10-17T12:23:53.577Z,24.57
2018-10-17T12:26:23.059Z,24.50
2018-10-17T12:28:52.714Z,24.29
2018-10-17T12:31:22.191Z,24.29
2018-10-17T12:33:51.752Z,24.37
2018-10-17T12:36:21.287Z,24.31
2018-10-17T12:38:50.858Z,24.29
2018-10-17T12:41:20.445Z,24.19
2018-10-17T12:43:50.040Z,24.09
2018-10-17T12:46:19.688Z,23.84
2018-10-17T12:48:49.223Z,23.90
2018-10-17T12:51:18.800Z,23.87
2018-10-17T12:53:48.527Z,23.85
2018-10-17T12:56:18.160Z,23.78
2018-10-17T12:58:47.618Z,23.75
2018-10-17T13:01:17.423Z,23.73
2018-10-17T13:03:46.954Z,23.68
2018-10-17T13:06:17.265Z,23.68
2018-10-17T13:08:46.903Z,23.63
2018-10-17T13:11:16.571Z,23.53
2018-10-17T13:13:45.992Z,23.46
2018-10-17T13:16:15.580Z,23.42
2018-10-17T13:18:45.111Z,23.30
2018-10-17T13:21:14.666Z,23.21
2018-10-17T13:23:44.167Z,23.10
2018-10-17T13:26:13.710Z,22.89
2018-10-17T13:28:43.235Z,22.89
2018-10-17T13:31:12.845Z,22.90
2018-10-17T13:33:42.396Z,22.86
2018-10-17T13:36:11.958Z,22.65
2018-10-17T13:38:41.532Z,22.62
2018-10-17T13:41:11.158Z,22.44
2018-10-17T13:43:40.679Z,22.45
2018-10-17T13:46:10.303Z,22.38
2018-10-17T13:48:39.838Z,22.29
2018-10-17T13:51:09.476Z,22.22
2018-10-17T13:53:38.982Z,22.19
2018-10-17T13:56:08.595Z,22.19
2018-10-17T13:58:38.099Z,22.07
2018-10-17T14:01:07.808Z,22.05
2018-10-17T14:03:37.247Z,22.04
2018-10-17T14:06:06.967Z,22.04
2018-10-17T14:08:36.487Z,21.96
2018-10-17T14:11:07.539Z,21.83
2018-10-17T14:13:37.136Z,21.77
2018-10-17T14:16:07.047Z,21.72
2018-10-17T14:18:36.603Z,21.64
2018-10-17T14:21:06.232Z,21.59
2018-10-17T14:23:35.829Z,21.51
2018-10-17T14:26:05.520Z,21.39
2018-10-17T14:28:35.043Z,21.36
2018-10-17T14:31:04.635Z,21.30
2018-10-17T14:33:34.197Z,21.21
2018-10-17T14:36:03.868Z,21.12
2018-10-17T14:38:33.835Z,21.07
2018-10-17T14:41:03.573Z,21.00
2018-10-17T14:43:33.078Z,20.95
2018-10-17T14:46:02.642Z,20.86
2018-10-17T14:48:32.188Z,20.78
2018-10-17T14:51:01.767Z,20.67
2018-10-17T14:53:31.291Z,20.52
2018-10-17T14:56:00.882Z,20.43
2018-10-17T14:58:30.462Z,20.39
2018-10-17T15:00:59.978Z,20.28
2018-10-17T15:03:29.566Z,20.26
2018-10-17T15:05:59.438Z,20.19
2018-10-17T15:08:28.979Z,20.14
2018-10-17T15:10:58.768Z,20.08
2018-10-17T15:13:28.190Z,19.99
2018-10-17T15:15:57.715Z,19.96
2018-10-17T15:18:27.247Z,19.91
2018-10-17T15:20:56.841Z,19.85
2018-10-17T15:23:26.395Z,19.78
2018-10-17T15:25:55.966Z,18.83
2018-10-17T15:28:25.464Z,18.88
2018-10-17T15:30:55.001Z,19.61
2018-10-17T15:33:24.533Z,19.56
2018-10-17T15:35:54.164Z,19.53
2018-10-17T15:38:23.894Z,19.50
2018-10-17T15:40:53.378Z,19.46
2018-10-17T15:43:23.053Z,19.43
2018-10-17T15:45:52.428Z,19.40
2018-10-17T15:48:22.027Z,19.38
2018-10-17T15:50:51.573Z,19.31
2018-10-17T15:53:21.150Z,19.29
2018-10-17T15:55:50.695Z,19.26
2018-10-17T15:58:20.215Z,19.24
2018-10-17T16:00:49.803Z,19.21
2018-10-17T16:03:19.362Z,19.18
2018-10-17T16:05:48.894Z,19.15
2018-10-17T16:08:18.457Z,19.12
2018-10-17T16:10:47.945Z,19.11
2018-10-17T16:13:17.526Z,19.08
2018-10-17T16:15:47.240Z,19.05
2018-10-17T16:18:16.965Z,19.03
2018-10-17T16:20:46.363Z,19.03
2018-10-17T16:23:16.019Z,19.01
2018-10-17T16:25:45.451Z,18.99
2018-10-17T16:28:15.148Z,18.97
2018-10-17T16:30:44.682Z,18.97
2018-10-17T16:33:14.255Z,18.95
2018-10-17T16:35:43.744Z,18.93
2018-10-17T16:38:13.459Z,18.92
2018-10-17T16:40:42.896Z,18.89
2018-10-17T16:43:12.384Z,18.87
2018-10-17T16:45:41.928Z,18.80
2018-10-17T16:48:11.519Z,18.80
2018-10-17T16:50:41.236Z,18.79
2018-10-17T16:53:10.675Z,18.73
2018-10-17T16:55:40.230Z,18.71
2018-10-17T16:58:09.815Z,18.64
2018-10-17T17:00:39.303Z,18.62
2018-10-17T17:03:08.844Z,18.57
2018-10-17T17:05:38.402Z,18.57
2018-10-17T17:08:08.035Z,18.57
2018-10-17T17:10:37.595Z,18.56
2018-10-17T17:13:07.105Z,18.56
2018-10-17T17:15:36.743Z,18.56
2018-10-17T17:18:06.304Z,18.56
2018-10-17T17:20:35.848Z,18.53
2018-10-17T17:23:05.583Z,18.52
2018-10-17T17:25:35.150Z,18.49
2018-10-17T17:28:04.763Z,18.43
2018-10-17T17:30:34.324Z,18.43
2018-10-17T17:33:03.996Z,18.37
2018-10-17T17:35:33.438Z,18.35
2018-10-17T17:38:03.006Z,18.23
2018-10-17T17:40:32.503Z,18.18
2018-10-17T17:43:02.058Z,17.19
2018-10-17T17:48:01.092Z,18.05
2018-10-17T17:50:30.654Z,18.03
2018-10-17T17:53:00.146Z,17.98
2018-10-17T17:55:29.686Z,17.92
2018-10-17T17:57:59.265Z,17.91
2018-10-17T18:00:28.891Z,17.85
2018-10-17T18:02:58.407Z,17.81
2018-10-17T18:05:27.952Z,17.79
2018-10-17T18:07:57.518Z,17.75
2018-10-17T18:10:27.014Z,17.71
2018-10-17T18:12:56.575Z,17.69
2018-10-17T18:15:26.063Z,17.60
2018-10-17T18:17:55.616Z,17.58
2018-10-17T18:20:25.111Z,17.53
2018-10-17T18:22:54.662Z,17.49
2018-10-17T18:25:24.163Z,17.44
2018-10-17T18:27:54.867Z,17.41
2018-10-17T18:30:24.376Z,17.36
2018-10-17T18:32:53.941Z,17.27
2018-10-17T18:35:23.503Z,17.27
2018-10-17T18:37:53.051Z,17.22
2018-10-17T18:40:22.708Z,17.16
2018-10-17T18:42:52.252Z,17.15
2018-10-17T18:45:21.878Z,17.13
2018-10-17T18:47:51.439Z,17.07
2018-10-17T18:50:20.974Z,17.03
2018-10-17T18:52:50.485Z,17.03
2018-10-17T18:55:20.042Z,16.97
2018-10-17T18:57:49.610Z,16.91
2018-10-17T19:00:19.167Z,16.86
2018-10-17T19:02:48.694Z,16.76
2018-10-17T19:05:18.276Z,16.67
2018-10-17T19:07:47.779Z,16.64
2018-10-17T19:10:17.338Z,16.61
2018-10-17T19:12:46.857Z,16.56
2018-10-17T19:15:16.487Z,16.52
2018-10-17T19:17:46.012Z,16.41
2018-10-17T19:20:15.532Z,16.35
2018-10-17T19:22:45.066Z,16.37
2018-10-17T19:25:14.576Z,16.34
2018-10-17T19:27:44.142Z,16.31
2018-10-17T19:30:13.713Z,16.32
2018-10-17T19:32:43.202Z,16.28
2018-10-17T19:35:12.751Z,16.28
2018-10-17T19:37:42.242Z,16.26
2018-10-17T19:40:12.146Z,16.27
2018-10-17T19:42:41.673Z,16.24
2018-10-17T19:45:11.620Z,16.23
2018-10-17T19:47:41.572Z,16.18
2018-10-17T19:50:11.106Z,16.16
2018-10-17T19:52:40.635Z,16.12
2018-10-17T19:55:10.851Z,16.12
2018-10-17T19:57:40.444Z,16.10
2018-10-17T20:00:12.081Z,16.08
2018-10-17T20:02:41.999Z,16.09
2018-10-17T20:05:11.978Z,16.08
2018-10-17T20:07:41.577Z,16.09
2018-10-17T20:10:11.187Z,16.08
2018-10-17T20:12:40.718Z,16.08
2018-10-17T20:15:10.265Z,16.04
2018-10-17T20:17:39.782Z,16.01
2018-10-17T20:20:09.345Z,15.96
2018-10-17T20:22:38.868Z,15.97
2018-10-17T20:25:08.655Z,15.97
2018-10-17T20:27:38.243Z,15.97
2018-10-17T20:30:08.826Z,15.94
2018-10-17T20:32:38.329Z,14.96
2018-10-17T20:35:08.231Z,15.85
2018-10-17T20:37:37.815Z,15.79
2018-10-17T20:40:07.408Z,15.72
2018-10-17T20:42:36.915Z,15.67
2018-10-17T20:45:07.079Z,15.58
2018-10-17T20:47:36.620Z,15.54
2018-10-17T20:50:06.981Z,15.47
2018-10-17T20:52:36.502Z,14.44
2018-10-17T20:55:06.644Z,15.40
2018-10-17T20:57:36.379Z,15.34
2018-10-17T21:00:06.394Z,15.32
2018-10-17T21:02:35.931Z,15.30
2018-10-17T21:05:06.254Z,15.27
2018-10-17T21:07:36.050Z,15.26
2018-10-17T21:10:05.954Z,15.25
2018-10-17T21:12:35.496Z,15.27
2018-10-17T21:15:05.768Z,15.27
2018-10-17T21:17:35.299Z,15.27
2018-10-17T21:20:05.028Z,15.28
2018-10-17T21:22:34.542Z,15.29
2018-10-17T21:25:04.107Z,15.29
2018-10-17T21:27:33.626Z,15.29
2018-10-17T21:30:03.216Z,15.27
2018-10-17T21:32:32.701Z,15.25
2018-10-17T21:35:02.230Z,15.22
2018-10-17T21:37:31.800Z,15.17
2018-10-17T21:40:01.315Z,14.32
2018-10-17T21:42:30.872Z,15.07
2018-10-17T21:45:00.375Z,15.04
2018-10-17T21:47:30.083Z,15.02
2018-10-17T21:49:59.559Z,14.97
2018-10-17T21:52:29.062Z,14.93
2018-10-17T21:54:58.582Z,14.94
2018-10-17T21:57:28.123Z,14.95
2018-10-17T21:59:57.678Z,14.95
2018-10-17T22:02:27.244Z,14.92
2018-10-17T22:04:56.794Z,14.92
2018-10-17T22:07:26.375Z,14.95
2018-10-17T22:09:56.026Z,14.99
2018-10-17T22:12:25.445Z,15.05
2018-10-17T22:14:55.018Z,15.07
2018-10-17T22:17:28.927Z,15.11
2018-10-17T22:19:58.733Z,15.16
2018-10-17T22:22:28.367Z,15.18
2018-10-17T22:24:57.919Z,15.20
2018-10-17T22:27:27.464Z,15.22
2018-10-17T22:29:57.081Z,15.26
2018-10-17T22:32:26.630Z,15.26
2018-10-17T22:34:56.123Z,15.25
2018-10-17T22:37:25.678Z,15.23
2018-10-17T22:39:55.202Z,15.21
2018-10-17T22:42:24.766Z,15.18
2018-10-17T22:44:54.314Z,15.16
2018-10-17T22:47:23.811Z,15.09
2018-10-17T22:49:53.356Z,15.07
2018-10-17T22:52:22.883Z,15.01
2018-10-17T22:54:52.430Z,15.02
2018-10-17T22:57:21.966Z,15.01
2018-10-17T22:59:51.511Z,15.01
2018-10-17T23:02:21.091Z,14.98
2018-10-17T23:04:50.582Z,15.00
2018-10-17T23:07:20.118Z,15.02
2018-10-17T23:09:49.644Z,14.98
2018-10-17T23:12:19.226Z,15.01
2018-10-17T23:14:48.734Z,15.00
2018-10-17T23:17:18.286Z,15.04
2018-10-17T23:19:47.855Z,15.05
2018-10-17T23:22:17.419Z,15.06
2018-10-17T23:24:46.998Z,15.08
2018-10-17T23:27:16.506Z,15.09
2018-10-17T23:29:46.062Z,15.12
2018-10-17T23:32:15.611Z,15.14
2018-10-17T23:34:45.113Z,15.16
2018-10-17T23:37:14.682Z,15.19
2018-10-17T23:39:44.178Z,15.19
2018-10-17T23:42:13.768Z,15.19
2018-10-17T23:44:43.297Z,15.19
2018-10-17T23:47:12.807Z,15.18
2018-10-17T23:49:42.411Z,15.18
2018-10-17T23:52:11.909Z,15.19
2018-10-17T23:54:41.450Z,15.20
2018-10-17T23:57:10.991Z,15.20
2018-10-17T23:59:40.556Z,15.21
